sensor_id;sensor_type;location;lat;lon;timestamp;P1;P2;P0
45312;PMS7003;31050;51.540;5.852;2023-02-25T00:12:44;0.6;3.82;1.86
45312;PMS7003;31050;51.540;5.852;2023-02-25T00:26:03;28.81;5.02;2.3
45312;PMS7003;31050;51.540;5.852;2023-02-25T00:39:23;1.92;5.02;2.19
45312;PMS7003;31050;51.540;5.852;2023-02-25T00:52:42;25.45;5.79;2.95
45312;PMS7003;31050;51.540;5.852;2023-02-25T01:06:02;30.61;5.24;2.41
45312;PMS7003;31050;51.540;5.852;2023-02-25T01:19:22;24.49;4.8;2.3
45312;PMS7003;31050;51.540;5.852;2023-02-25T01:32:42;15.85;4.37;1.75
45312;PMS7003;31050;51.540;5.852;2023-02-25T01:46:01;38.42;4.04;1.75
45312;PMS7003;31050;51.540;5.852;2023-02-25T01:59:21;22.57;3.82;1.64
45312;PMS7003;31050;51.540;5.852;2023-02-25T02:12:41;28.21;4.15;1.64
45312;PMS7003;31050;51.540;5.852;2023-02-25T02:26:00;7.21;3.17;1.43
45312;PMS7003;31050;51.540;5.852;2023-02-25T02:39:20;6.25;2.08;1.32
45312;PMS7003;31050;51.540;5.852;2023-02-25T02:52:39;69.63;2.95;1.21
45312;PMS7003;31050;51.540;5.852;2023-02-25T03:05:59;21.25;3.61;1.43
45312;PMS7003;31050;51.540;5.852;2023-02-25T03:19:19;1.2;4.37;1.43
45312;PMS7003;31050;51.540;5.852;2023-02-25T03:32:38;18.13;3.61;1.54
45312;PMS7003;31050;51.540;5.852;2023-02-25T03:45:58;1.08;4.26;1.43
45312;PMS7003;31050;51.540;5.852;2023-02-25T03:59:18;0.01;1.97;1.54
45312;PMS7003;31050;51.540;5.852;2023-02-25T04:12:37;0.96;4.15;1.75
45312;PMS7003;31050;51.540;5.852;2023-02-25T04:25:57;0.12;3.39;1.86
45312;PMS7003;31050;51.540;5.852;2023-02-25T04:39:16;5.53;4.26;1.97
45312;PMS7003;31050;51.540;5.852;2023-02-25T04:52:36;8.65;4.8;2.08
45312;PMS7003;31050;51.540;5.852;2023-02-25T05:05:55;1.44;4.59;1.97
45312;PMS7003;31050;51.540;5.852;2023-02-25T05:19:15;92.19;5.9;1.86
45312;PMS7003;31050;51.540;5.852;2023-02-25T05:32:35;20.41;4.48;2.08
45312;PMS7003;31050;51.540;5.852;2023-02-25T05:45:54;8.77;4.37;1.75
45312;PMS7003;31050;51.540;5.852;2023-02-25T05:59:14;28.21;4.15;1.64
45312;PMS7003;31050;51.540;5.852;2023-02-25T06:12:34;27.85;5.9;1.97
45312;PMS7003;31050;51.540;5.852;2023-02-25T06:25:53;11.41;5.57;1.75
45312;PMS7003;31050;51.540;5.852;2023-02-25T06:39:13;18.97;4.26;1.75
45312;PMS7003;31050;51.540;5.852;2023-02-25T06:52:32;21.25;4.59;1.64
45312;PMS7003;31050;51.540;5.852;2023-02-25T07:05:52;14.05;4.37;1.54
45312;PMS7003;31050;51.540;5.852;2023-02-25T07:19:12;1.32;4.48;1.86
45312;PMS7003;31050;51.540;5.852;2023-02-25T07:32:31;11.17;5.13;1.86
45312;PMS7003;31050;51.540;5.852;2023-02-25T07:45:51;31.81;5.13;1.64
45312;PMS7003;31050;51.540;5.852;2023-02-25T07:59:11;20.17;5.13;1.64
45312;PMS7003;31050;51.540;5.852;2023-02-25T08:12:30;25.69;3.93;1.64
45312;PMS7003;31050;51.540;5.852;2023-02-25T08:25:50;50.42;4.26;1.54
45312;PMS7003;31050;51.540;5.852;2023-02-25T08:39:09;36.14;4.04;1.64
45312;PMS7003;31050;51.540;5.852;2023-02-25T08:52:29;16.45;3.5;1.64
45312;PMS7003;31050;51.540;5.852;2023-02-25T09:05:49;0.01;2.52;1.43
45312;PMS7003;31050;51.540;5.852;2023-02-25T09:19:08;0.24;3.5;1.64
45312;PMS7003;31050;51.540;5.852;2023-02-25T09:32:28;5.41;3.06;1.43
45312;PMS7003;31050;51.540;5.852;2023-02-25T09:45:47;0.01;3.17;1.54
45312;PMS7003;31050;51.540;5.852;2023-02-25T09:59:07;4.93;3.39;1.54
45312;PMS7003;31050;51.540;5.852;2023-02-25T10:12:27;21.61;2.3;1.54
45312;PMS7003;31050;51.540;5.852;2023-02-25T10:25:46;15.97;1.54;
45312;PMS7003;31050;51.540;5.852;2023-02-25T10:39:06;0.01;1.43;
45312;PMS7003;31050;51.540;5.852;2023-02-25T10:52:26;0.01;1.21;
45312;PMS7003;31050;51.540;5.852;2023-02-25T11:05:45;;;
45312;PMS7003;31050;51.540;5.852;2023-02-25T11:19:05;0.01;1.54;
45312;PMS7003;31050;51.540;5.852;2023-02-25T11:32:24;16.09;1.64;
45312;PMS7003;31050;51.540;5.852;2023-02-25T11:45:44;0.01;1.64;
45312;PMS7003;31050;51.540;5.852;2023-02-25T11:59:04;0.01;1.32;
45312;PMS7003;31050;51.540;5.852;2023-02-25T12:12:23;0.01;1.32;
45312;PMS7003;31050;51.540;5.852;2023-02-25T12:25:43;0.01;1.64;1.21
45312;PMS7003;31050;51.540;5.852;2023-02-25T12:39:02;41.54;2.19;1.32
45312;PMS7003;31050;51.540;5.852;2023-02-25T15:18:58;0.01;1.43;
45312;PMS7003;31050;51.540;5.852;2023-02-25T15:32:18;0.01;1.54;
45312;PMS7003;31050;51.540;5.852;2023-02-25T15:45:37;0.01;1.64;
45312;PMS7003;31050;51.540;5.852;2023-02-25T15:58:57;0.01;1.43;
45312;PMS7003;31050;51.540;5.852;2023-02-25T16:12:16;0.01;1.32;
45312;PMS7003;31050;51.540;5.852;2023-02-25T16:25:36;0.01;1.32;
45312;PMS7003;31050;51.540;5.852;2023-02-25T16:38:56;21.37;2.08;
45312;PMS7003;31050;51.540;5.852;2023-02-25T16:52:15;33.98;1.64;
45312;PMS7003;31050;51.540;5.852;2023-02-25T17:05:35;0.01;1.86;
45312;PMS7003;31050;51.540;5.852;2023-02-25T17:18:55;23.29;1.86;1.54
45312;PMS7003;31050;51.540;5.852;2023-02-25T17:32:14;0.01;1.64;1.21
45312;PMS7003;31050;51.540;5.852;2023-02-25T17:45:34;0.01;1.54;1.21
45312;PMS7003;31050;51.540;5.852;2023-02-25T17:58:54;18.61;2.19;1.64
45312;PMS7003;31050;51.540;5.852;2023-02-25T18:12:13;9.37;2.3;1.64
45312;PMS7003;31050;51.540;5.852;2023-02-25T18:25:33;0.01;2.41;1.75
45312;PMS7003;31050;51.540;5.852;2023-02-25T18:38:53;0.01;2.73;1.64
45312;PMS7003;31050;51.540;5.852;2023-02-25T18:52:12;4.45;2.95;1.75
45312;PMS7003;31050;51.540;5.852;2023-02-25T19:05:32;12.37;2.41;1.86
45312;PMS7003;31050;51.540;5.852;2023-02-25T19:18:51;0.01;2.08;1.64
45312;PMS7003;31050;51.540;5.852;2023-02-25T19:32:11;0.01;2.62;1.64
45312;PMS7003;31050;51.540;5.852;2023-02-25T19:45:31;0.01;2.08;1.64
45312;PMS7003;31050;51.540;5.852;2023-02-25T19:58:51;0.01;2.95;1.64
45312;PMS7003;31050;51.540;5.852;2023-02-25T20:12:10;0.01;2.52;1.86
45312;PMS7003;31050;51.540;5.852;2023-02-25T20:25:30;10.45;2.73;2.08
45312;PMS7003;31050;51.540;5.852;2023-02-25T20:38:50;0.01;2.95;2.19
45312;PMS7003;31050;51.540;5.852;2023-02-25T20:52:09;1.68;2.73;2.08
45312;PMS7003;31050;51.540;5.852;2023-02-25T21:05:29;0.01;2.84;2.08
45312;PMS7003;31050;51.540;5.852;2023-02-25T21:18:49;0.01;3.17;2.3
45312;PMS7003;31050;51.540;5.852;2023-02-25T21:32:08;0.24;3.5;2.19
45312;PMS7003;31050;51.540;5.852;2023-02-25T21:45:28;4.09;2.52;1.97
45312;PMS7003;31050;51.540;5.852;2023-02-25T21:58:48;0.01;3.17;2.08
45312;PMS7003;31050;51.540;5.852;2023-02-25T22:12:07;3.85;3.39;2.19
45312;PMS7003;31050;51.540;5.852;2023-02-25T22:25:27;3.24;3.61;2.41
45312;PMS7003;31050;51.540;5.852;2023-02-25T22:38:47;0.48;3.71;2.52
45312;PMS7003;31050;51.540;5.852;2023-02-25T22:52:06;1.08;4.26;3.28
45312;PMS7003;31050;51.540;5.852;2023-02-25T23:05:26;4.09;6.99;5.24
45312;PMS7003;31050;51.540;5.852;2023-02-25T23:18:45;7.81;4.8;3.5
45312;PMS7003;31050;51.540;5.852;2023-02-25T23:32:05;0.72;3.93;3.17
45312;PMS7003;31050;51.540;5.852;2023-02-25T23:45:25;4.45;4.59;3.5
45312;PMS7003;31050;51.540;5.852;2023-02-25T23:58:44;5.65;4.37;3.39
